sensor_id;sensor_type;location;lat;lon;timestamp;pressure;altitude;pressure_sealevel;temperature;humidity
19590;BME280;12231;42.782;23.388;2022-08-25T00:00:17;95380.59;;;22.49;99.03
19590;BME280;12231;42.782;23.388;2022-08-25T00:02:42;95391.09;;;22.57;98.32
19590;BME280;12231;42.782;23.388;2022-08-25T00:05:08;95390.25;;;22.64;98.19
19590;BME280;12231;42.782;23.388;2022-08-25T00:07:33;95377.66;;;22.44;98.23
19590;BME280;12231;42.782;23.388;2022-08-25T00:09:59;95376.47;;;22.46;98.01
19590;BME280;12231;42.782;23.388;2022-08-25T00:12:24;95378.75;;;22.57;98.06
19590;BME280;12231;42.782;23.388;2022-08-25T00:14:50;95386.97;;;22.62;97.12
19590;BME280;12231;42.782;23.388;2022-08-25T00:17:16;95380.94;;;22.38;98.05
19590;BME280;12231;42.782;23.388;2022-08-25T00:19:41;95376.00;;;22.43;98.40
19590;BME280;12231;42.782;23.388;2022-08-25T00:22:07;95374.50;;;22.48;98.31
19590;BME280;12231;42.782;23.388;2022-08-25T00:24:32;95384.38;;;22.54;97.96
19590;BME280;12231;42.782;23.388;2022-08-25T00:26:59;95389.41;;;22.64;97.68
19590;BME280;12231;42.782;23.388;2022-08-25T00:29:26;95383.19;;;22.65;96.99
19590;BME280;12231;42.782;23.388;2022-08-25T00:31:53;95380.06;;;22.69;97.25
19590;BME280;12231;42.782;23.388;2022-08-25T00:34:24;95384.13;;;22.72;96.69
19590;BME280;12231;42.782;23.388;2022-08-25T00:36:50;95397.03;;;22.59;96.64
19590;BME280;12231;42.782;23.388;2022-08-25T00:39:17;95391.09;;;22.57;96.94
19590;BME280;12231;42.782;23.388;2022-08-25T00:41:45;95388.47;;;22.57;96.25
19590;BME280;12231;42.782;23.388;2022-08-25T00:44:13;95393.06;;;22.55;95.64
19590;BME280;12231;42.782;23.388;2022-08-25T00:46:45;95386.47;;;22.51;96.04
19590;BME280;12231;42.782;23.388;2022-08-25T00:51:49;95382.75;;;22.37;95.17
19590;BME280;12231;42.782;23.388;2022-08-25T00:54:19;95384.91;;;22.26;96.30
19590;BME280;12231;42.782;23.388;2022-08-25T00:56:47;95374.94;;;22.13;96.38
19590;BME280;12231;42.782;23.388;2022-08-25T00:59:13;95368.66;;;22.22;96.67
19590;BME280;12231;42.782;23.388;2022-08-25T01:01:39;95362.59;;;22.14;96.26
19590;BME280;12231;42.782;23.388;2022-08-25T01:04:05;95357.03;;;22.09;96.20
19590;BME280;12231;42.782;23.388;2022-08-25T01:06:33;95365.59;;;22.03;96.17
19590;BME280;12231;42.782;23.388;2022-08-25T01:09:01;95371.84;;;22.02;96.91
19590;BME280;12231;42.782;23.388;2022-08-25T01:11:27;95367.56;;;21.93;96.85
19590;BME280;12231;42.782;23.388;2022-08-25T01:13:54;95354.75;;;21.65;96.40
19590;BME280;12231;42.782;23.388;2022-08-25T01:16:21;95362.28;;;21.44;97.42
19590;BME280;12231;42.782;23.388;2022-08-25T01:18:52;95362.72;;;21.16;99.43
19590;BME280;12231;42.782;23.388;2022-08-25T01:21:20;95369.22;;;20.88;100.00
19590;BME280;12231;42.782;23.388;2022-08-25T01:23:47;95367.66;;;20.69;100.00
19590;BME280;12231;42.782;23.388;2022-08-25T01:26:20;95365.59;;;20.89;100.00
19590;BME280;12231;42.782;23.388;2022-08-25T01:28:48;95360.25;;;20.98;100.00
19590;BME280;12231;42.782;23.388;2022-08-25T01:31:33;95373.88;;;21.10;100.00
19590;BME280;12231;42.782;23.388;2022-08-25T01:33:59;95369.66;;;21.25;100.00
19590;BME280;12231;42.782;23.388;2022-08-25T01:36:26;95365.25;;;21.33;100.00
19590;BME280;12231;42.782;23.388;2022-08-25T01:38:53;95367.72;;;21.51;100.00
19590;BME280;12231;42.782;23.388;2022-08-25T01:44:00;95370.16;;;21.60;100.00
19590;BME280;12231;42.782;23.388;2022-08-25T01:46:26;95367.38;;;21.54;100.00
19590;BME280;12231;42.782;23.388;2022-08-25T01:48:52;95367.22;;;21.47;100.00
19590;BME280;12231;42.782;23.388;2022-08-25T01:51:24;95377.69;;;21.31;100.00
19590;BME280;12231;42.782;23.388;2022-08-25T01:53:50;95373.25;;;21.24;100.00
19590;BME280;12231;42.782;23.388;2022-08-25T01:56:16;95374.56;;;21.36;100.00
19590;BME280;12231;42.782;23.388;2022-08-25T01:58:44;95377.22;;;21.44;100.00
19590;BME280;12231;42.782;23.388;2022-08-25T02:01:17;95376.53;;;21.50;100.00
19590;BME280;12231;42.782;23.388;2022-08-25T02:03:46;95368.19;;;21.38;100.00
19590;BME280;12231;42.782;23.388;2022-08-25T02:06:20;95369.13;;;21.05;100.00
19590;BME280;12231;42.782;23.388;2022-08-25T02:08:50;95372.47;;;20.48;100.00
19590;BME280;12231;42.782;23.388;2022-08-25T02:11:16;95374.47;;;20.54;100.00
19590;BME280;12231;42.782;23.388;2022-08-25T02:13:41;95371.81;;;20.80;100.00
19590;BME280;12231;42.782;23.388;2022-08-25T02:16:08;95366.81;;;21.02;100.00
19590;BME280;12231;42.782;23.388;2022-08-25T02:18:34;95357.81;;;21.21;100.00
19590;BME280;12231;42.782;23.388;2022-08-25T02:21:00;95355.38;;;21.35;100.00
19590;BME280;12231;42.782;23.388;2022-08-25T02:23:26;95360.00;;;21.41;100.00
19590;BME280;12231;42.782;23.388;2022-08-25T02:25:52;95349.69;;;21.48;100.00
19590;BME280;12231;42.782;23.388;2022-08-25T02:28:17;95352.13;;;21.41;100.00
19590;BME280;12231;42.782;23.388;2022-08-25T02:30:43;95357.22;;;21.51;100.00
19590;BME280;12231;42.782;23.388;2022-08-25T02:33:10;95352.81;;;21.51;100.00
19590;BME280;12231;42.782;23.388;2022-08-25T02:35:35;95350.66;;;21.47;100.00
19590;BME280;12231;42.782;23.388;2022-08-25T02:38:02;95354.09;;;21.31;100.00
19590;BME280;12231;42.782;23.388;2022-08-25T02:40:27;95355.22;;;21.29;100.00
19590;BME280;12231;42.782;23.388;2022-08-25T02:42:53;95353.75;;;21.26;100.00
19590;BME280;12231;42.782;23.388;2022-08-25T02:45:19;95350.63;;;21.31;100.00
19590;BME280;12231;42.782;23.388;2022-08-25T02:47:45;95351.13;;;21.34;100.00
19590;BME280;12231;42.782;23.388;2022-08-25T02:50:11;95335.56;;;21.33;100.00
19590;BME280;12231;42.782;23.388;2022-08-25T02:52:37;95348.19;;;21.29;100.00
19590;BME280;12231;42.782;23.388;2022-08-25T02:55:06;95344.53;;;21.14;100.00
19590;BME280;12231;42.782;23.388;2022-08-25T02:57:32;95348.81;;;21.07;100.00
19590;BME280;12231;42.782;23.388;2022-08-25T02:59:57;95359.91;;;21.01;100.00
19590;BME280;12231;42.782;23.388;2022-08-25T03:02:24;95349.59;;;21.00;100.00
19590;BME280;12231;42.782;23.388;2022-08-25T03:04:51;95362.94;;;20.81;100.00
19590;BME280;12231;42.782;23.388;2022-08-25T03:07:17;95356.63;;;20.91;100.00
19590;BME280;12231;42.782;23.388;2022-08-25T03:09:43;95357.28;;;21.01;100.00
19590;BME280;12231;42.782;23.388;2022-08-25T03:12:10;95364.22;;;21.18;100.00
19590;BME280;12231;42.782;23.388;2022-08-25T03:14:37;95363.06;;;21.21;100.00
19590;BME280;12231;42.782;23.388;2022-08-25T03:17:04;95353.75;;;21.34;100.00
19590;BME280;12231;42.782;23.388;2022-08-25T03:19:29;95349.16;;;21.12;100.00
19590;BME280;12231;42.782;23.388;2022-08-25T03:21:55;95352.13;;;21.17;100.00
19590;BME280;12231;42.782;23.388;2022-08-25T03:24:22;95356.22;;;21.28;100.00
19590;BME280;12231;42.782;23.388;2022-08-25T03:26:48;95353.75;;;21.34;100.00
19590;BME280;12231;42.782;23.388;2022-08-25T03:29:28;95357.88;;;21.45;100.00
19590;BME280;12231;42.782;23.388;2022-08-25T03:31:54;95362.28;;;21.36;100.00
19590;BME280;12231;42.782;23.388;2022-08-25T03:34:22;95362.78;;;21.48;100.00
19590;BME280;12231;42.782;23.388;2022-08-25T03:36:50;95363.59;;;21.56;100.00
19590;BME280;12231;42.782;23.388;2022-08-25T03:39:17;95366.88;;;21.58;99.88
19590;BME280;12231;42.782;23.388;2022-08-25T03:41:43;95366.72;;;21.68;99.83
19590;BME280;12231;42.782;23.388;2022-08-25T03:44:09;95368.22;;;21.62;99.06
19590;BME280;12231;42.782;23.388;2022-08-25T03:46:41;95374.59;;;21.60;99.39
19590;BME280;12231;42.782;23.388;2022-08-25T03:49:09;95370.50;;;21.49;100.00
19590;BME280;12231;42.782;23.388;2022-08-25T03:51:40;95364.25;;;21.50;99.96
19590;BME280;12231;42.782;23.388;2022-08-25T03:54:08;95363.75;;;21.23;100.00
19590;BME280;12231;42.782;23.388;2022-08-25T03:56:34;95349.19;;;21.36;100.00
19590;BME280;12231;42.782;23.388;2022-08-25T03:59:00;95350.75;;;21.05;100.00
19590;BME280;12231;42.782;23.388;2022-08-25T04:01:26;95344.59;;;21.30;100.00
19590;BME280;12231;42.782;23.388;2022-08-25T04:03:52;95347.38;;;21.53;100.00
19590;BME280;12231;42.782;23.388;2022-08-25T04:06:18;95351.31;;;21.57;99.55
19590;BME280;12231;42.782;23.388;2022-08-25T04:08:43;95349.69;;;21.72;98.86
19590;BME280;12231;42.782;23.388;2022-08-25T04:11:12;95353.47;;;21.94;98.31
19590;BME280;12231;42.782;23.388;2022-08-25T04:13:38;95353.78;;;22.07;97.40
19590;BME280;12231;42.782;23.388;2022-08-25T04:16:21;95351.78;;;22.09;96.97
19590;BME280;12231;42.782;23.388;2022-08-25T04:18:48;95352.13;;;22.06;96.00
19590;BME280;12231;42.782;23.388;2022-08-25T04:21:15;95355.09;;;22.03;96.62
19590;BME280;12231;42.782;23.388;2022-08-25T04:23:43;95364.59;;;21.96;96.74
19590;BME280;12231;42.782;23.388;2022-08-25T04:26:11;95363.31;;;21.84;97.02
19590;BME280;12231;42.782;23.388;2022-08-25T04:28:37;95360.03;;;21.90;98.54
19590;BME280;12231;42.782;23.388;2022-08-25T04:31:08;95345.91;;;22.07;99.12
19590;BME280;12231;42.782;23.388;2022-08-25T04:33:37;95342.34;;;22.38;98.35
19590;BME280;12231;42.782;23.388;2022-08-25T04:36:04;95346.19;;;22.28;95.80
19590;BME280;12231;42.782;23.388;2022-08-25T04:38:30;95351.22;;;22.53;95.32
19590;BME280;12231;42.782;23.388;2022-08-25T04:41:01;95365.41;;;22.75;93.45
19590;BME280;12231;42.782;23.388;2022-08-25T04:43:29;95361.84;;;22.98;91.07
19590;BME280;12231;42.782;23.388;2022-08-25T04:45:54;95371.75;;;23.19;89.45
19590;BME280;12231;42.782;23.388;2022-08-25T04:48:20;95368.41;;;23.33;87.79
19590;BME280;12231;42.782;23.388;2022-08-25T04:50:46;95375.25;;;23.42;87.46
19590;BME280;12231;42.782;23.388;2022-08-25T04:53:12;95376.91;;;23.43;86.50
19590;BME280;12231;42.782;23.388;2022-08-25T04:55:42;95376.66;;;23.53;86.47
19590;BME280;12231;42.782;23.388;2022-08-25T04:58:10;95376.84;;;23.51;85.95
19590;BME280;12231;42.782;23.388;2022-08-25T05:00:37;95378.34;;;23.46;86.00
19590;BME280;12231;42.782;23.388;2022-08-25T05:03:05;95376.56;;;23.46;86.26
19590;BME280;12231;42.782;23.388;2022-08-25T05:05:36;95369.00;;;23.43;86.05
19590;BME280;12231;42.782;23.388;2022-08-25T05:08:04;95371.59;;;23.51;85.83
19590;BME280;12231;42.782;23.388;2022-08-25T05:10:31;95375.72;;;23.46;86.10
19590;BME280;12231;42.782;23.388;2022-08-25T05:12:57;95372.56;;;23.50;86.56
19590;BME280;12231;42.782;23.388;2022-08-25T05:15:25;95361.72;;;23.53;86.60
19590;BME280;12231;42.782;23.388;2022-08-25T05:18:09;95366.38;;;23.66;85.89
19590;BME280;12231;42.782;23.388;2022-08-25T05:20:35;95360.13;;;23.81;85.62
19590;BME280;12231;42.782;23.388;2022-08-25T05:23:02;95365.63;;;23.94;85.24
19590;BME280;12231;42.782;23.388;2022-08-25T05:25:27;95372.88;;;23.92;84.52
19590;BME280;12231;42.782;23.388;2022-08-25T05:27:53;95375.53;;;24.29;83.00
19590;BME280;12231;42.782;23.388;2022-08-25T05:30:18;95371.34;;;24.64;82.19
19590;BME280;12231;42.782;23.388;2022-08-25T05:32:44;95374.16;;;25.06;80.10
19590;BME280;12231;42.782;23.388;2022-08-25T05:35:09;95368.66;;;25.37;78.34
19590;BME280;12231;42.782;23.388;2022-08-25T05:37:35;95357.09;;;25.80;76.65
19590;BME280;12231;42.782;23.388;2022-08-25T05:40:06;95352.09;;;26.40;75.57
19590;BME280;12231;42.782;23.388;2022-08-25T05:42:33;95351.50;;;26.79;72.72
19590;BME280;12231;42.782;23.388;2022-08-25T05:44:58;95347.75;;;26.26;74.50
19590;BME280;12231;42.782;23.388;2022-08-25T05:47:24;95351.06;;;26.41;73.66
19590;BME280;12231;42.782;23.388;2022-08-25T05:49:49;95359.56;;;24.89;79.20
19590;BME280;12231;42.782;23.388;2022-08-25T05:52:15;95355.34;;;24.95;79.82
19590;BME280;12231;42.782;23.388;2022-08-25T05:54:41;95346.81;;;26.13;76.14
19590;BME280;12231;42.782;23.388;2022-08-25T05:57:06;95345.09;;;26.94;72.75
19590;BME280;12231;42.782;23.388;2022-08-25T05:59:33;95336.88;;;26.15;74.10
19590;BME280;12231;42.782;23.388;2022-08-25T06:01:58;95335.47;;;25.98;75.81
19590;BME280;12231;42.782;23.388;2022-08-25T06:04:42;95339.75;;;26.47;74.70
19590;BME280;12231;42.782;23.388;2022-08-25T06:07:08;95343.19;;;26.48;74.28
19590;BME280;12231;42.782;23.388;2022-08-25T06:09:33;95344.03;;;26.55;73.46
19590;BME280;12231;42.782;23.388;2022-08-25T06:12:01;95343.13;;;26.69;72.82
19590;BME280;12231;42.782;23.388;2022-08-25T06:14:27;95348.91;;;26.85;72.31
19590;BME280;12231;42.782;23.388;2022-08-25T06:16:52;95351.19;;;26.61;73.58
19590;BME280;12231;42.782;23.388;2022-08-25T06:19:18;95348.69;;;27.34;70.36
19590;BME280;12231;42.782;23.388;2022-08-25T06:21:43;95357.78;;;27.12;70.98
19590;BME280;12231;42.782;23.388;2022-08-25T06:24:09;95352.53;;;26.78;73.62
19590;BME280;12231;42.782;23.388;2022-08-25T06:26:35;95342.81;;;27.32;71.10
19590;BME280;12231;42.782;23.388;2022-08-25T06:29:01;95346.78;;;28.14;68.74
19590;BME280;12231;42.782;23.388;2022-08-25T06:31:27;95345.53;;;28.50;66.44
19590;BME280;12231;42.782;23.388;2022-08-25T06:33:52;95350.81;;;28.63;66.07
19590;BME280;12231;42.782;23.388;2022-08-25T06:36:18;95340.81;;;29.28;64.68
19590;BME280;12231;42.782;23.388;2022-08-25T06:38:45;95341.09;;;29.07;63.86
19590;BME280;12231;42.782;23.388;2022-08-25T06:41:11;95334.38;;;29.42;63.25
19590;BME280;12231;42.782;23.388;2022-08-25T06:43:38;95336.53;;;29.90;62.43
19590;BME280;12231;42.782;23.388;2022-08-25T06:46:11;95337.06;;;29.36;62.72
19590;BME280;12231;42.782;23.388;2022-08-25T06:48:37;95338.56;;;29.63;63.13
19590;BME280;12231;42.782;23.388;2022-08-25T06:51:11;95336.19;;;29.04;64.39
19590;BME280;12231;42.782;23.388;2022-08-25T06:53:38;95342.56;;;28.84;64.94
19590;BME280;12231;42.782;23.388;2022-08-25T06:56:04;95343.41;;;27.34;70.39
19590;BME280;12231;42.782;23.388;2022-08-25T06:58:30;95339.25;;;28.11;67.98
19590;BME280;12231;42.782;23.388;2022-08-25T07:00:56;95338.38;;;28.44;66.27
19590;BME280;12231;42.782;23.388;2022-08-25T07:03:21;95349.69;;;29.09;64.71
19590;BME280;12231;42.782;23.388;2022-08-25T07:05:54;95347.69;;;28.85;65.77
19590;BME280;12231;42.782;23.388;2022-08-25T07:08:21;95338.13;;;28.71;66.64
19590;BME280;12231;42.782;23.388;2022-08-25T07:10:47;95340.06;;;26.65;73.37
19590;BME280;12231;42.782;23.388;2022-08-25T07:13:13;95338.31;;;26.85;72.51
19590;BME280;12231;42.782;23.388;2022-08-25T07:15:41;95338.97;;;27.48;70.63
19590;BME280;12231;42.782;23.388;2022-08-25T07:18:08;95335.94;;;26.29;75.23
19590;BME280;12231;42.782;23.388;2022-08-25T07:20:34;95332.16;;;25.26;79.64
19590;BME280;12231;42.782;23.388;2022-08-25T07:23:00;95334.84;;;26.44;76.30
19590;BME280;12231;42.782;23.388;2022-08-25T07:25:25;95338.16;;;26.93;73.25
19590;BME280;12231;42.782;23.388;2022-08-25T07:27:51;95342.38;;;27.29;72.25
19590;BME280;12231;42.782;23.388;2022-08-25T07:30:17;95335.94;;;27.70;70.55
19590;BME280;12231;42.782;23.388;2022-08-25T07:32:42;95339.25;;;27.92;70.19
19590;BME280;12231;42.782;23.388;2022-08-25T07:35:08;95337.59;;;28.04;69.25
19590;BME280;12231;42.782;23.388;2022-08-25T07:37:44;95335.13;;;28.35;67.36
19590;BME280;12231;42.782;23.388;2022-08-25T07:40:31;95336.53;;;27.59;69.70
19590;BME280;12231;42.782;23.388;2022-08-25T07:42:59;95337.31;;;27.40;70.47
19590;BME280;12231;42.782;23.388;2022-08-25T07:45:28;95344.97;;;28.08;68.58
19590;BME280;12231;42.782;23.388;2022-08-25T07:48:06;95346.38;;;28.11;67.87
19590;BME280;12231;42.782;23.388;2022-08-25T07:50:32;95349.31;;;26.82;73.60
19590;BME280;12231;42.782;23.388;2022-08-25T07:52:58;95343.50;;;27.13;72.28
19590;BME280;12231;42.782;23.388;2022-08-25T07:55:25;95342.22;;;27.43;71.59
19590;BME280;12231;42.782;23.388;2022-08-25T07:57:51;95344.94;;;27.09;71.91
19590;BME280;12231;42.782;23.388;2022-08-25T08:00:17;95339.41;;;27.84;69.09
19590;BME280;12231;42.782;23.388;2022-08-25T08:02:43;95336.34;;;28.39;67.04
19590;BME280;12231;42.782;23.388;2022-08-25T08:05:10;95327.91;;;29.70;64.22
19590;BME280;12231;42.782;23.388;2022-08-25T08:07:36;95326.69;;;31.00;59.37
19590;BME280;12231;42.782;23.388;2022-08-25T08:10:06;95317.59;;;30.71;61.69
19590;BME280;12231;42.782;23.388;2022-08-25T08:12:34;95322.25;;;32.13;56.29
19590;BME280;12231;42.782;23.388;2022-08-25T08:14:59;95308.28;;;33.14;51.35
19590;BME280;12231;42.782;23.388;2022-08-25T08:17:25;95303.75;;;33.88;50.18
19590;BME280;12231;42.782;23.388;2022-08-25T08:19:51;95301.03;;;34.16;50.21
19590;BME280;12231;42.782;23.388;2022-08-25T08:22:17;95307.03;;;33.33;50.98
19590;BME280;12231;42.782;23.388;2022-08-25T08:24:43;95302.66;;;34.17;49.41
19590;BME280;12231;42.782;23.388;2022-08-25T08:27:11;95295.91;;;36.40;43.96
19590;BME280;12231;42.782;23.388;2022-08-25T08:29:38;95301.69;;;35.42;46.24
19590;BME280;12231;42.782;23.388;2022-08-25T08:32:06;95295.28;;;35.43;46.15
19590;BME280;12231;42.782;23.388;2022-08-25T08:34:32;95285.22;;;36.97;42.30
19590;BME280;12231;42.782;23.388;2022-08-25T08:36:58;95283.59;;;38.63;38.82
19590;BME280;12231;42.782;23.388;2022-08-25T08:39:24;95283.78;;;40.04;35.83
19590;BME280;12231;42.782;23.388;2022-08-25T08:47:40;95278.22;;;39.42;36.39
19590;BME280;12231;42.782;23.388;2022-08-25T08:50:28;95277.69;;;38.06;37.56
19590;BME280;12231;42.782;23.388;2022-08-25T08:53:08;95285.84;;;35.41;43.33
19590;BME280;12231;42.782;23.388;2022-08-25T08:55:39;95289.47;;;34.32;45.37
19590;BME280;12231;42.782;23.388;2022-08-25T08:58:11;95284.03;;;33.04;49.18
19590;BME280;12231;42.782;23.388;2022-08-25T09:00:42;95290.00;;;32.37;51.09
19590;BME280;12231;42.782;23.388;2022-08-25T09:03:13;95278.53;;;33.84;47.24
19590;BME280;12231;42.782;23.388;2022-08-25T09:05:45;95282.97;;;31.78;52.52
19590;BME280;12231;42.782;23.388;2022-08-25T09:08:12;95282.22;;;33.50;48.10
19590;BME280;12231;42.782;23.388;2022-08-25T09:16:45;95276.34;;;33.08;47.63
19590;BME280;12231;42.782;23.388;2022-08-25T09:27:21;95283.50;;;33.47;47.07
19590;BME280;12231;42.782;23.388;2022-08-25T09:32:14;95284.38;;;31.81;50.48
19590;BME280;12231;42.782;23.388;2022-08-25T09:34:42;95282.81;;;32.26;48.95
19590;BME280;12231;42.782;23.388;2022-08-25T09:37:08;95288.28;;;32.54;45.67
19590;BME280;12231;42.782;23.388;2022-08-25T09:39:34;95286.19;;;32.22;44.61
19590;BME280;12231;42.782;23.388;2022-08-25T09:42:00;95287.94;;;31.04;44.90
19590;BME280;12231;42.782;23.388;2022-08-25T09:44:39;95274.09;;;30.41;48.28
19590;BME280;12231;42.782;23.388;2022-08-25T09:47:20;95282.44;;;30.63;46.24
19590;BME280;12231;42.782;23.388;2022-08-25T09:52:40;95281.78;;;30.49;48.76
19590;BME280;12231;42.782;23.388;2022-08-25T09:57:45;95281.03;;;29.75;49.91
19590;BME280;12231;42.782;23.388;2022-08-25T10:02:41;95274.56;;;30.93;49.89
19590;BME280;12231;42.782;23.388;2022-08-25T10:07:50;95268.75;;;32.07;45.41
19590;BME280;12231;42.782;23.388;2022-08-25T10:10:21;95283.97;;;32.19;47.19
19590;BME280;12231;42.782;23.388;2022-08-25T10:12:47;95270.75;;;32.00;46.19
19590;BME280;12231;42.782;23.388;2022-08-25T10:15:22;95275.78;;;31.67;46.23
19590;BME280;12231;42.782;23.388;2022-08-25T10:17:49;95258.50;;;31.58;45.54
19590;BME280;12231;42.782;23.388;2022-08-25T10:20:27;95264.50;;;31.65;45.13
19590;BME280;12231;42.782;23.388;2022-08-25T10:23:09;95255.81;;;31.58;45.09
19590;BME280;12231;42.782;23.388;2022-08-25T10:25:42;95263.53;;;32.13;45.31
19590;BME280;12231;42.782;23.388;2022-08-25T10:31:13;95258.59;;;31.52;44.64
19590;BME280;12231;42.782;23.388;2022-08-25T10:38:58;95255.84;;;30.63;46.40
19590;BME280;12231;42.782;23.388;2022-08-25T10:46:47;95238.38;;;31.44;46.26
19590;BME280;12231;42.782;23.388;2022-08-25T10:49:19;95249.00;;;31.74;46.92
19590;BME280;12231;42.782;23.388;2022-08-25T10:55:24;95244.66;;;30.18;50.47
19590;BME280;12231;42.782;23.388;2022-08-25T10:57:57;95249.03;;;30.49;49.57
19590;BME280;12231;42.782;23.388;2022-08-25T11:00:33;95247.03;;;30.62;49.71
19590;BME280;12231;42.782;23.388;2022-08-25T11:06:29;95234.97;;;30.24;50.14
19590;BME280;12231;42.782;23.388;2022-08-25T11:09:02;95236.91;;;29.12;51.49
19590;BME280;12231;42.782;23.388;2022-08-25T11:11:52;95228.03;;;29.80;51.63
19590;BME280;12231;42.782;23.388;2022-08-25T11:14:32;95233.47;;;30.10;51.50
19590;BME280;12231;42.782;23.388;2022-08-25T11:17:11;95228.78;;;30.48;50.31
19590;BME280;12231;42.782;23.388;2022-08-25T11:19:44;95235.22;;;30.40;52.13
19590;BME280;12231;42.782;23.388;2022-08-25T11:22:19;95229.81;;;30.47;49.57
19590;BME280;12231;42.782;23.388;2022-08-25T11:27:45;95218.81;;;30.01;51.44
19590;BME280;12231;42.782;23.388;2022-08-25T11:30:16;95209.13;;;29.88;49.60
19590;BME280;12231;42.782;23.388;2022-08-25T11:32:46;95203.56;;;29.72;50.87
19590;BME280;12231;42.782;23.388;2022-08-25T11:35:16;95205.19;;;29.48;48.73
19590;BME280;12231;42.782;23.388;2022-08-25T11:40:39;95195.44;;;29.60;51.62
19590;BME280;12231;42.782;23.388;2022-08-25T11:46:05;95195.09;;;29.57;50.00
19590;BME280;12231;42.782;23.388;2022-08-25T11:48:59;95198.66;;;29.93;52.05
19590;BME280;12231;42.782;23.388;2022-08-25T11:51:47;95185.41;;;30.29;48.72
19590;BME280;12231;42.782;23.388;2022-08-25T11:54:23;95183.66;;;30.71;46.86
19590;BME280;12231;42.782;23.388;2022-08-25T12:05:04;95183.38;;;30.07;46.87
19590;BME280;12231;42.782;23.388;2022-08-25T12:13:47;95175.16;;;30.80;46.74
19590;BME280;12231;42.782;23.388;2022-08-25T12:19:27;95184.97;;;29.90;48.43
19590;BME280;12231;42.782;23.388;2022-08-25T12:21:56;95197.88;;;29.43;47.02
19590;BME280;12231;42.782;23.388;2022-08-25T12:27:10;95176.72;;;29.55;48.44
19590;BME280;12231;42.782;23.388;2022-08-25T12:29:47;95171.91;;;29.64;48.37
19590;BME280;12231;42.782;23.388;2022-08-25T12:40:35;95171.59;;;30.87;45.89
19590;BME280;12231;42.782;23.388;2022-08-25T12:43:07;95168.72;;;30.88;46.30
19590;BME280;12231;42.782;23.388;2022-08-25T12:45:40;95178.53;;;31.17;47.92
19590;BME280;12231;42.782;23.388;2022-08-25T12:51:00;95166.94;;;31.23;45.67
19590;BME280;12231;42.782;23.388;2022-08-25T12:53:56;95175.91;;;30.99;45.07
19590;BME280;12231;42.782;23.388;2022-08-25T12:56:31;95172.06;;;30.65;46.33
19590;BME280;12231;42.782;23.388;2022-08-25T13:07:18;95178.03;;;29.71;48.24
19590;BME280;12231;42.782;23.388;2022-08-25T13:10:36;95170.81;;;29.78;47.01
19590;BME280;12231;42.782;23.388;2022-08-25T13:15:45;95171.63;;;30.14;46.93
19590;BME280;12231;42.782;23.388;2022-08-25T13:18:13;95165.06;;;30.17;46.56
19590;BME280;12231;42.782;23.388;2022-08-25T13:20:39;95164.69;;;30.13;46.49
19590;BME280;12231;42.782;23.388;2022-08-25T13:23:04;95163.94;;;29.88;46.77
19590;BME280;12231;42.782;23.388;2022-08-25T13:25:30;95181.72;;;29.88;48.10
19590;BME280;12231;42.782;23.388;2022-08-25T13:28:00;95166.56;;;29.45;46.91
19590;BME280;12231;42.782;23.388;2022-08-25T13:30:34;95170.50;;;29.12;47.93
19590;BME280;12231;42.782;23.388;2022-08-25T13:33:15;95165.31;;;28.92;47.55
19590;BME280;12231;42.782;23.388;2022-08-25T13:35:47;95156.09;;;28.64;48.22
19590;BME280;12231;42.782;23.388;2022-08-25T13:38:14;95159.94;;;28.68;48.61
19590;BME280;12231;42.782;23.388;2022-08-25T13:40:41;95161.94;;;28.72;49.01
19590;BME280;12231;42.782;23.388;2022-08-25T13:43:09;95163.34;;;28.81;49.60
19590;BME280;12231;42.782;23.388;2022-08-25T13:45:41;95168.13;;;28.66;49.83
19590;BME280;12231;42.782;23.388;2022-08-25T13:48:12;95165.47;;;28.66;50.20
19590;BME280;12231;42.782;23.388;2022-08-25T13:50:40;95168.19;;;28.53;49.53
19590;BME280;12231;42.782;23.388;2022-08-25T13:53:23;95164.13;;;28.44;49.15
19590;BME280;12231;42.782;23.388;2022-08-25T13:55:56;95160.66;;;28.50;49.60
19590;BME280;12231;42.782;23.388;2022-08-25T13:58:24;95168.66;;;28.31;50.40
19590;BME280;12231;42.782;23.388;2022-08-25T14:01:08;95169.31;;;28.26;49.68
19590;BME280;12231;42.782;23.388;2022-08-25T14:03:38;95170.69;;;28.28;49.49
19590;BME280;12231;42.782;23.388;2022-08-25T14:08:39;95178.88;;;28.27;49.97
19590;BME280;12231;42.782;23.388;2022-08-25T14:11:31;95169.75;;;28.16;50.57
19590;BME280;12231;42.782;23.388;2022-08-25T14:14:10;95172.22;;;28.11;50.17
19590;BME280;12231;42.782;23.388;2022-08-25T14:17:09;95176.91;;;28.03;51.22
19590;BME280;12231;42.782;23.388;2022-08-25T14:19:36;95173.84;;;28.06;51.24
19590;BME280;12231;42.782;23.388;2022-08-25T14:22:08;95187.47;;;28.16;50.39
19590;BME280;12231;42.782;23.388;2022-08-25T14:24:34;95179.53;;;28.16;50.77
19590;BME280;12231;42.782;23.388;2022-08-25T14:27:01;95180.75;;;28.20;50.24
19590;BME280;12231;42.782;23.388;2022-08-25T14:29:27;95174.22;;;28.16;50.20
19590;BME280;12231;42.782;23.388;2022-08-25T14:31:52;95179.59;;;27.83;51.54
19590;BME280;12231;42.782;23.388;2022-08-25T14:34:24;95182.88;;;27.20;52.61
19590;BME280;12231;42.782;23.388;2022-08-25T14:36:51;95184.94;;;27.51;51.90
19590;BME280;12231;42.782;23.388;2022-08-25T14:39:16;95181.66;;;27.49;52.04
19590;BME280;12231;42.782;23.388;2022-08-25T14:41:42;95181.47;;;27.44;52.80
19590;BME280;12231;42.782;23.388;2022-08-25T14:44:11;95181.66;;;27.55;54.50
19590;BME280;12231;42.782;23.388;2022-08-25T14:46:41;95173.69;;;27.62;53.91
19590;BME280;12231;42.782;23.388;2022-08-25T14:49:10;95171.91;;;27.49;52.88